Daily Tabular Data
[Select Refresh to Update]


12/13/18
Time         Wind Dir   Wind Spd  Wind Gust     Hum In   Humidity    Temp In       Temp  Raw Barom   Tot Rain Wind Chill Heat Ix In Heat Index  Dew Point  DailyRain   HourRain   RainRate
                            mph        mph          %          %         F         F         in         in         F         F         F         F         in         in      in/hr
12:00am           201          0          2         49         96       67.3       58.3      29.34       3.30       58.3       68.0       64.9       57.2       0.00       0.00      0.000
12:30am           179          0          2         50         88       67.2       52.7      29.34       3.30       52.7       68.0       58.0       49.3       0.00       0.00      0.000
1:00am            163          0          0         50         88       67.1       51.6      29.34       3.30       51.6       67.9       56.9       48.2       0.00       0.00      0.000
1:30am            152          0          2         50         90       66.9       50.4      29.34       3.30       50.4       67.7       56.0       47.6       0.00       0.00      0.000
2:00am            146          0          2         50         89       66.8       50.6      29.34       3.30       50.6       67.6       56.1       47.5       0.00       0.00      0.000
2:30am            171          0          0         50         90       66.6       50.7      29.34       3.30       50.7       67.4       56.3       47.9       0.00       0.00      0.000
3:00am            140          0          1         49         89       66.6       51.3      29.34       3.30       51.3       67.3       56.8       48.2       0.00       0.00      0.000
3:30am            175          0          0         49         86       66.4       50.0      29.33       3.30       50.0       67.1       55.1       46.0       0.00       0.00      0.000
4:00am            171          0          3         48         76       66.3       50.9      29.34       3.30       50.9       66.9       54.6       43.6       0.00       0.00      0.000
4:30am            186          2          6         48         68       66.2       53.4      29.35       3.30       53.4       66.8       56.1       43.1       0.00       0.00      0.000
5:00am            180          1          4         47         61       66.0       53.9      29.34       3.30       53.9       66.5       55.8       40.8       0.00       0.00      0.000
5:30am            172          1          4         46         71       65.8       53.5      29.35       3.30       53.5       66.2       56.6       44.3       0.00       0.00      0.000
6:00am            177          1          3         45         57       65.6       55.7      29.36       3.30       55.7       65.9       57.2       40.7       0.00       0.00      0.000
6:30am            172          1          3         44         51       65.5       56.8      29.36       3.30       56.8       65.8       57.7       38.9       0.00       0.00      0.000
7:00am            182          0          4         44         78       65.4       62.0      29.37       3.30       62.0       65.7       66.0       55.1       0.00       0.00      0.000
7:30am            184          2          3         44         54       65.3       55.7      29.37       3.30       55.7       65.6       56.9       39.3       0.00       0.00      0.000
8:00am            175          1          3         43         44       65.2       60.9      29.38       3.30       60.9       65.4       61.2       38.9       0.00       0.00      0.000
8:30am            161          0          4         43         42       65.3       64.2      29.38       3.30       64.2       65.5       64.3       40.7       0.00       0.00      0.000
9:00am            163          0          1         42         37       65.8       71.1      29.39       3.30       71.1       65.9       70.8       43.5       0.00       0.00      0.000
9:30am            205          0          0         42         33       66.3       73.0      29.39       3.30       73.0       66.4       72.4       42.2       0.00       0.00      0.000
10:00am           317          0          0         42         34       66.5       69.7      29.39       3.30       69.7       66.6       69.2       40.1       0.00       0.00      0.000
10:30am           307          0          1         42         37       66.5       69.9      29.39       3.30       69.9       66.6       69.6       42.5       0.00       0.00      0.000
11:00am           323          0          0         43         35       66.5       71.0      29.38       3.30       71.0       66.7       70.5       42.0       0.00       0.00      0.000
11:30am           317          0          1         43         34       66.5       72.4      29.37       3.30       72.4       66.7       71.9       42.5       0.00       0.00      0.000
12:00pm           338          0          4         43         29       66.6       72.7      29.35       3.30       72.7       66.8       71.8       38.6       0.00       0.00      0.000
12:30pm            19          3          7         43         29       66.8       72.1      29.34       3.30       72.1       67.0       71.2       38.1       0.00       0.00      0.000
1:00pm             15          4          9         43         29       66.9       73.0      29.34       3.30       73.0       67.1       72.1       38.9       0.00       0.00      0.000
1:30pm             18          1          7         43         26       67.1       73.6      29.32       3.30       73.6       67.3       72.5       36.6       0.00       0.00      0.000
2:00pm            341          0          4         43         28       67.3       75.5      29.31       3.30       75.5       67.5       74.6       40.1       0.00       0.00      0.000
2:30pm            333          2          4         43         24       67.5       76.7      29.32       3.30       76.7       67.7       75.5       37.2       0.00       0.00      0.000
3:00pm            333          1          8         44         23       67.6       74.8      29.32       3.30       74.8       67.9       73.6       34.6       0.00       0.00      0.000
3:30pm             21          2          7         44         29       67.8       74.4      29.32       3.30       74.4       68.1       73.5       40.1       0.00       0.00      0.000
4:00pm             15          4          7         44         29       67.9       73.0      29.32       3.30       73.0       68.2       72.1       38.9       0.00       0.00      0.000
4:30pm             25          0          5         44         32       68.0       70.4      29.32       3.30       70.4       68.3       69.7       39.2       0.00       0.00      0.000
5:00pm            103          0          0         44         34       68.1       66.3      29.32       3.30       66.3       68.4       65.8       37.1       0.00       0.00      0.000
5:30pm            144          0          1         45         36       68.3       64.9      29.33       3.30       64.9       68.6       64.5       37.3       0.00       0.00      0.000
6:00pm            165          1          2         45         45       68.3       63.2      29.33       3.30       63.2       68.6       63.5       41.5       0.00       0.00      0.000
6:30pm            142          0          2         45         44       68.4       64.2      29.33       3.30       64.2       68.7       64.5       41.9       0.00       0.00      0.000
7:00pm            249          0          2         45         45       68.4       62.4      29.33       3.30       62.4       68.7       62.7       40.8       0.00       0.00      0.000
7:30pm            156          0          2         45         48       68.4       60.6      29.34       3.30       60.6       68.7       61.2       40.8       0.00       0.00      0.000
8:00pm            178          2          3         44         46       68.4       59.1      29.35       3.30       59.1       68.7       59.5       38.4       0.00       0.00      0.000
8:30pm            155          0          2         45         51       68.4       58.2      29.35       3.30       58.2       68.7       59.1       40.2       0.00       0.00      0.000
9:00pm            146          1          2         44         45       68.4       59.3      29.35       3.30       59.3       68.7       59.6       38.0       0.00       0.00      0.000
9:30pm            161          1          3         44         41       68.4       59.0      29.35       3.30       59.0       68.7       59.0       35.4       0.00       0.00      0.000
10:00pm           165          0          1         44         39       68.3       59.5      29.36       3.30       59.5       68.6       59.3       34.5       0.00       0.00      0.000
10:30pm           165          0          1         44         43       68.3       57.8      29.36       3.30       57.8       68.6       58.0       35.5       0.00       0.00      0.000
11:00pm           161          0          1         44         41       68.2       57.8      29.36       3.30       57.8       68.5       57.8       34.3       0.00       0.00      0.000